Time;durP1;ratioP1;P1;durP2;ratioP2;P2;SDS_P1;SDS_P2;PMS_P1;PMS_P2;Temp;Humidity;BMP_temperature;BMP_pressure;BME280_temperature;BME280_humidity;BME280_pressure;Samples;Min_cycle;Max_cycle;Signal;HPM_P1;HPM_P2
2023/01/08 00:01:42;;;;;;;1.38;0.85;;;12.20;79.60;;;;;;5098467;28;20032;-69
2023/01/08 00:04:07;;;;;;;1.27;0.85;;;12.20;79.70;;;;;;5096074;28;20410;-70
2023/01/08 00:06:33;;;;;;;1.35;0.98;;;12.20;79.70;;;;;;5094062;28;20080;-60
2023/01/08 00:08:59;;;;;;;1.05;0.98;;;12.20;79.60;;;;;;5093969;28;20055;-60
2023/01/08 00:11:25;;;;;;;2.05;1.20;;;12.20;79.60;;;;;;5107219;28;20028;-70
2023/01/08 00:13:50;;;;;;;1.85;1.15;;;12.20;79.50;;;;;;5107699;28;20035;-69
2023/01/08 00:16:17;;;;;;;2.03;1.17;;;12.20;79.60;;;;;;5086509;28;20421;-70
2023/01/08 00:18:44;;;;;;;1.73;1.05;;;12.20;79.50;;;;;;5101095;28;20066;-69
2023/01/08 00:21:09;;;;;;;1.50;1.20;;;12.20;79.60;;;;;;5100502;28;20471;-61
2023/01/08 00:23:36;;;;;;;1.80;1.25;;;12.20;79.60;;;;;;5101108;28;20126;-70
2023/01/08 00:26:07;;;;;;;1.40;1.08;;;12.20;79.50;;;;;;5110800;28;20116;-59
2023/01/08 00:28:33;;;;;;;1.35;1.25;;;12.20;79.50;;;;;;5093386;28;20023;-59
2023/01/08 00:31:00;;;;;;;3.17;1.08;;;12.20;79.50;;;;;;5082447;28;20368;-58
2023/01/08 00:33:26;;;;;;;1.52;1.02;;;12.20;79.40;;;;;;5090288;28;20066;-58
2023/01/08 00:35:51;;;;;;;2.67;1.10;;;12.30;79.40;;;;;;5090045;28;20071;-69
2023/01/08 00:38:17;;;;;;;0.98;0.98;;;12.30;79.30;;;;;;5089555;28;20063;-60
2023/01/08 00:40:43;;;;;;;0.90;0.82;;;12.30;79.20;;;;;;5098476;28;20036;-59
2023/01/08 00:43:08;;;;;;;1.10;0.75;;;12.20;79.30;;;;;;5092635;28;20031;-70
2023/01/08 00:45:34;;;;;;;3.30;1.10;;;12.20;79.30;;;;;;5089028;28;20475;-69
2023/01/08 00:48:00;;;;;;;2.78;1.10;;;12.20;79.30;;;;;;5092326;28;20555;-59
2023/01/08 00:50:26;;;;;;;1.80;0.82;;;12.30;79.30;;;;;;5090212;28;20548;-69
2023/01/08 00:52:52;;;;;;;2.22;1.10;;;12.30;79.20;;;;;;5096232;28;20051;-70
2023/01/08 00:55:18;;;;;;;1.63;1.15;;;12.30;79.00;;;;;;5094544;28;20019;-59
2023/01/08 00:57:43;;;;;;;0.88;0.88;;;12.30;78.90;;;;;;5094757;28;20487;-60
2023/01/08 01:00:12;;;;;;;1.88;1.02;;;12.30;78.90;;;;;;5093799;28;20031;-59
2023/01/08 01:02:40;;;;;;;2.17;1.35;;;12.30;78.90;;;;;;5088125;28;20507;-59
2023/01/08 01:05:07;;;;;;;3.83;1.38;;;12.30;78.90;;;;;;5091255;28;20060;-60
2023/01/08 01:07:33;;;;;;;2.72;1.30;;;12.30;78.70;;;;;;5083142;28;20038;-60
2023/01/08 01:10:00;;;;;;;2.70;1.17;;;12.40;78.60;;;;;;5092573;28;20024;-59
2023/01/08 01:12:25;;;;;;;2.03;1.10;;;12.40;78.70;;;;;;5079330;28;20058;-59
2023/01/08 01:14:51;;;;;;;3.70;1.52;;;12.40;78.60;;;;;;5073756;28;20033;-59
2023/01/08 01:17:17;;;;;;;5.32;2.00;;;12.40;78.60;;;;;;5107998;28;20046;-59
2023/01/08 01:19:43;;;;;;;1.13;1.05;;;12.30;78.50;;;;;;5107936;28;20047;-59
2023/01/08 01:22:08;;;;;;;6.93;1.20;;;12.40;78.50;;;;;;5085146;28;20032;-59
2023/01/08 01:24:34;;;;;;;4.88;1.10;;;12.40;78.40;;;;;;5071769;28;20466;-59
2023/01/08 01:27:00;;;;;;;5.93;1.52;;;12.40;78.40;;;;;;5096650;28;20073;-58
2023/01/08 01:29:26;;;;;;;1.88;1.48;;;12.40;78.40;;;;;;5103216;28;20036;-59
2023/01/08 01:31:51;;;;;;;1.92;1.00;;;12.40;78.30;;;;;;5089848;28;20024;-58
2023/01/08 01:34:17;;;;;;;2.17;1.40;;;12.40;78.40;;;;;;5102511;28;20114;-59
2023/01/08 01:36:43;;;;;;;1.23;0.90;;;12.40;78.40;;;;;;5099299;28;20115;-69
2023/01/08 01:39:08;;;;;;;2.55;0.90;;;12.40;78.40;;;;;;5100999;28;20086;-69
2023/01/08 01:41:41;;;;;;;2.30;1.48;;;12.40;78.40;;;;;;5073836;28;20031;-69
2023/01/08 01:44:37;;;;;;;1.33;0.93;;;12.40;78.40;;;;;;5100961;28;20165;-60
2023/01/08 01:47:15;;;;;;;1.65;1.10;;;12.40;78.40;;;;;;5099499;28;20027;-69
2023/01/08 01:49:47;;;;;;;3.80;1.35;;;12.30;78.30;;;;;;5072590;28;20059;-69
2023/01/08 01:52:13;;;;;;;1.70;1.27;;;12.30;78.50;;;;;;5096009;28;20107;-69
2023/01/08 01:54:39;;;;;;;1.58;1.17;;;12.20;78.50;;;;;;5096925;28;20123;-68
2023/01/08 01:57:07;;;;;;;2.47;1.00;;;12.20;78.50;;;;;;5078216;28;20102;-69
2023/01/08 01:59:32;;;;;;;1.23;0.80;;;12.20;78.50;;;;;;5074560;28;20127;-68
2023/01/08 02:01:59;;;;;;;2.35;1.02;;;12.20;78.60;;;;;;5093598;28;20456;-59
2023/01/08 02:04:25;;;;;;;0.80;0.80;;;12.20;78.60;;;;;;5092425;28;20062;-60
2023/01/08 02:07:23;;;;;;;1.60;0.98;;;12.20;78.60;;;;;;5095278;28;20447;-60
2023/01/08 02:09:59;;;;;;;1.73;1.02;;;12.20;78.60;;;;;;5092868;28;20347;-60
2023/01/08 02:12:31;;;;;;;2.00;1.10;;;12.20;78.60;;;;;;5094473;28;20024;-69
2023/01/08 02:15:07;;;;;;;2.28;0.93;;;12.20;78.70;;;;;;5089147;28;20036;-69
2023/01/08 02:18:01;;;;;;;0.82;0.82;;;12.20;78.60;;;;;;5069789;28;20467;-70
2023/01/08 02:20:36;;;;;;;3.08;1.38;;;12.20;78.60;;;;;;5093244;28;20035;-69
2023/01/08 02:23:29;;;;;;;1.65;0.98;;;12.20;78.60;;;;;;5092297;28;20468;-68
2023/01/08 02:26:36;;;;;;;1.90;1.13;;;12.20;78.50;;;;;;5089236;28;20028;-70
2023/01/08 02:29:07;;;;;;;3.50;1.08;;;12.20;78.40;;;;;;5093532;28;20043;-68
2023/01/08 02:31:37;;;;;;;2.07;0.97;;;12.20;78.60;;;;;;5098203;28;20031;-70
2023/01/08 02:34:03;;;;;;;0.90;0.65;;;12.10;78.60;;;;;;5103673;28;20310;-69
2023/01/08 02:36:38;;;;;;;0.95;0.68;;;12.10;78.70;;;;;;5098145;28;20486;-69
2023/01/08 02:39:26;;;;;;;1.92;1.10;;;12.10;78.80;;;;;;5087333;28;20596;-59
2023/01/08 02:42:12;;;;;;;1.50;0.88;;;12.20;78.80;;;;;;5096780;28;20027;-59
2023/01/08 02:44:49;;;;;;;2.53;1.17;;;12.20;78.60;;;;;;5087862;28;20028;-69
2023/01/08 02:47:35;;;;;;;0.70;0.70;;;12.20;78.70;;;;;;5096837;28;20016;-68
2023/01/08 02:50:13;;;;;;;2.58;1.20;;;12.20;78.60;;;;;;5092956;28;20425;-68
2023/01/08 02:53:11;;;;;;;1.38;1.00;;;12.20;78.60;;;;;;5093979;28;20024;-59
2023/01/08 02:55:39;;;;;;;1.98;1.00;;;12.20;78.70;;;;;;5087125;28;20112;-59
2023/01/08 02:58:05;;;;;;;3.30;1.60;;;12.20;78.90;;;;;;5092943;28;20090;-69
2023/01/08 03:00:31;;;;;;;1.65;1.17;;;12.20;79.20;;;;;;5095502;28;20021;-69
2023/01/08 03:03:06;;;;;;;2.80;1.20;;;12.20;79.30;;;;;;5096131;28;20418;-69
2023/01/08 03:05:33;;;;;;;1.33;1.08;;;12.10;79.30;;;;;;5093630;28;20549;-59
2023/01/08 03:07:59;;;;;;;1.20;0.70;;;12.10;79.40;;;;;;5089293;28;20123;-59
2023/01/08 03:10:29;;;;;;;1.13;0.80;;;12.10;79.50;;;;;;5074821;28;20016;-68
2023/01/08 03:13:19;;;;;;;6.47;1.17;;;12.00;79.60;;;;;;5092746;28;20024;-68
2023/01/08 03:15:54;;;;;;;2.28;0.73;;;12.00;79.60;;;;;;5074224;28;20020;-69
2023/01/08 03:18:24;;;;;;;3.63;0.88;;;11.80;79.70;;;;;;5102545;28;20073;-59
2023/01/08 03:20:50;;;;;;;2.60;1.08;;;11.80;80.00;;;;;;5103781;28;20028;-59
2023/01/08 03:23:18;;;;;;;1.13;0.70;;;11.70;80.10;;;;;;5100869;28;20028;-59
2023/01/08 03:25:46;;;;;;;6.97;1.27;;;11.70;80.00;;;;;;5077744;28;20023;-59
2023/01/08 03:28:23;;;;;;;2.25;0.98;;;11.60;80.10;;;;;;5092684;28;20024;-60
2023/01/08 03:30:51;;;;;;;4.47;1.13;;;11.60;80.20;;;;;;5095040;28;20036;-59
2023/01/08 03:33:20;;;;;;;0.93;0.90;;;11.50;80.10;;;;;;5097212;28;20039;-68
2023/01/08 03:35:50;;;;;;;0.38;0.30;;;11.50;80.10;;;;;;5094263;28;20128;-69
2023/01/08 03:38:29;;;;;;;0.35;0.32;;;11.50;80.00;;;;;;5074024;28;20025;-59
2023/01/08 03:41:18;;;;;;;0.50;0.50;;;11.40;80.00;;;;;;5096519;28;20247;-69
2023/01/08 03:43:44;;;;;;;0.70;0.30;;;11.40;80.00;;;;;;5087185;28;20020;-69
2023/01/08 03:46:15;;;;;;;0.30;0.30;;;11.30;80.40;;;;;;5057536;28;20029;-69
2023/01/08 03:48:42;;;;;;;2.47;0.80;;;11.30;79.70;;;;;;5100601;28;20028;-69
2023/01/08 03:51:09;;;;;;;1.23;0.55;;;11.20;79.80;;;;;;5074209;28;20395;-69
2023/01/08 03:53:35;;;;;;;0.77;0.50;;;11.20;79.80;;;;;;5074606;28;20053;-69
2023/01/08 03:56:00;;;;;;;0.65;0.20;;;11.20;80.00;;;;;;5080711;28;20031;-70
2023/01/08 03:58:26;;;;;;;1.33;0.63;;;11.10;80.10;;;;;;5087846;28;20425;-60
2023/01/08 04:00:52;;;;;;;1.25;0.50;;;11.10;80.10;;;;;;5095824;28;20032;-69
2023/01/08 04:03:18;;;;;;;2.50;0.30;;;11.10;80.20;;;;;;5082325;28;20032;-60
2023/01/08 04:05:43;;;;;;;2.78;0.50;;;11.10;80.30;;;;;;5095293;28;20039;-60
2023/01/08 04:08:09;;;;;;;1.27;0.52;;;11.00;80.30;;;;;;5097890;28;20395;-70
2023/01/08 04:10:35;;;;;;;1.23;0.40;;;11.00;80.50;;;;;;5093256;28;20063;-60
2023/01/08 04:13:01;;;;;;;3.95;0.77;;;11.00;80.60;;;;;;5089563;28;20064;-70
2023/01/08 04:15:26;;;;;;;0.55;0.30;;;11.00;80.60;;;;;;5096163;28;21105;-60
2023/01/08 04:17:53;;;;;;;0.20;0.20;;;11.00;80.70;;;;;;5087332;28;20085;-60
2023/01/08 04:20:18;;;;;;;2.88;0.40;;;11.00;80.70;;;;;;5111716;28;20020;-69
2023/01/08 04:22:44;;;;;;;1.08;0.73;;;11.00;80.70;;;;;;5096469;28;20020;-59
2023/01/08 04:25:10;;;;;;;2.08;0.47;;;11.00;80.80;;;;;;5110010;28;20049;-70
2023/01/08 04:27:36;;;;;;;0.75;0.50;;;10.90;80.80;;;;;;5099576;28;20100;-59
2023/01/08 04:30:02;;;;;;;0.50;0.40;;;11.00;80.90;;;;;;5088581;28;20024;-69
2023/01/08 04:32:28;;;;;;;1.20;0.70;;;10.90;80.90;;;;;;5108233;28;20092;-69
2023/01/08 04:34:54;;;;;;;0.73;0.40;;;11.00;80.90;;;;;;5109571;28;20410;-69
2023/01/08 04:37:19;;;;;;;0.57;0.40;;;10.90;80.90;;;;;;5076669;28;20036;-70
2023/01/08 04:39:45;;;;;;;0.30;0.30;;;10.90;81.00;;;;;;5072549;28;20115;-59
2023/01/08 04:42:11;;;;;;;0.55;0.55;;;10.90;81.00;;;;;;5089563;28;20051;-59
2023/01/08 04:44:36;;;;;;;1.17;0.60;;;10.90;81.10;;;;;;5091240;28;20020;-70
2023/01/08 04:47:02;;;;;;;0.80;0.52;;;10.90;81.00;;;;;;5082233;28;20024;-69
2023/01/08 04:49:28;;;;;;;4.47;1.05;;;10.90;81.10;;;;;;5088314;28;20157;-69
2023/01/08 04:51:53;;;;;;;1.17;0.80;;;10.90;81.10;;;;;;5086052;28;20050;-59
2023/01/08 04:54:19;;;;;;;1.15;0.43;;;10.90;81.20;;;;;;5100474;28;20098;-59
2023/01/08 04:56:44;;;;;;;1.50;1.08;;;10.90;81.20;;;;;;5104885;28;20036;-69
2023/01/08 04:59:10;;;;;;;0.65;0.60;;;10.90;81.20;;;;;;5079443;28;20032;-70
2023/01/08 05:01:36;;;;;;;3.72;0.68;;;10.80;81.30;;;;;;5089394;28;20023;-69
2023/01/08 05:04:04;;;;;;;0.65;0.60;;;10.90;81.20;;;;;;5088532;28;20039;-60
2023/01/08 05:06:31;;;;;;;1.00;0.60;;;10.90;81.10;;;;;;5103360;28;20044;-59
2023/01/08 05:08:57;;;;;;;1.55;0.75;;;11.00;81.00;;;;;;5081984;28;20016;-59
2023/01/08 05:11:24;;;;;;;0.98;0.73;;;11.00;81.00;;;;;;5076777;28;20471;-59
2023/01/08 05:13:51;;;;;;;0.47;0.47;;;11.00;81.00;;;;;;5073802;28;20035;-70
2023/01/08 05:16:16;;;;;;;0.95;0.40;;;11.00;81.00;;;;;;5088294;28;20063;-59
2023/01/08 05:18:43;;;;;;;2.08;0.30;;;11.00;81.00;;;;;;5090355;28;20036;-59
2023/01/08 05:21:09;;;;;;;0.38;0.32;;;11.00;80.90;;;;;;5086115;28;20975;-59
2023/01/08 05:23:35;;;;;;;1.75;0.50;;;11.00;80.90;;;;;;5099393;28;20024;-69
2023/01/08 05:26:03;;;;;;;2.13;0.57;;;11.00;80.90;;;;;;5105328;28;20040;-69
2023/01/08 05:28:29;;;;;;;1.15;0.50;;;11.00;80.90;;;;;;5089179;28;20079;-60
2023/01/08 05:30:56;;;;;;;0.30;0.30;;;11.00;81.00;;;;;;5068708;28;20504;-68
2023/01/08 05:33:22;;;;;;;2.25;0.55;;;11.00;81.00;;;;;;5089299;28;20511;-69
2023/01/08 05:35:48;;;;;;;3.53;0.70;;;11.00;81.00;;;;;;5087841;28;20368;-69
2023/01/08 05:38:14;;;;;;;2.00;1.25;;;11.00;80.90;;;;;;5064529;28;20059;-69
2023/01/08 05:40:39;;;;;;;1.63;0.93;;;11.00;81.00;;;;;;5079168;28;20378;-69
2023/01/08 05:43:05;;;;;;;3.17;0.65;;;11.00;81.00;;;;;;5072992;28;20033;-69
2023/01/08 05:45:32;;;;;;;1.90;1.10;;;11.00;81.10;;;;;;5061290;28;20019;-70
2023/01/08 05:47:58;;;;;;;0.70;0.60;;;11.00;81.10;;;;;;5082715;28;20488;-70
2023/01/08 05:50:24;;;;;;;1.35;0.75;;;10.90;81.10;;;;;;5067844;28;20069;-70
2023/01/08 05:52:49;;;;;;;1.83;0.90;;;10.90;81.10;;;;;;5076025;28;20491;-60
2023/01/08 05:55:15;;;;;;;4.28;1.08;;;10.90;81.20;;;;;;5084338;28;20028;-70
2023/01/08 05:57:41;;;;;;;1.05;0.75;;;10.90;81.20;;;;;;5089252;28;20036;-70
2023/01/08 06:00:08;;;;;;;1.20;1.08;;;10.90;81.20;;;;;;5092435;28;20070;-69
2023/01/08 06:02:34;;;;;;;0.70;0.60;;;10.90;81.20;;;;;;5093027;28;20032;-60
2023/01/08 06:05:00;;;;;;;0.32;0.32;;;10.90;81.20;;;;;;5094536;28;20050;-61
2023/01/08 06:07:27;;;;;;;0.32;0.32;;;11.00;81.20;;;;;;5073666;28;20347;-60
2023/01/08 06:09:53;;;;;;;0.80;0.50;;;10.90;80.90;;;;;;5094243;28;20026;-59
2023/01/08 06:12:19;;;;;;;3.67;0.85;;;10.90;81.00;;;;;;5096502;28;20031;-60
2023/01/08 06:14:45;;;;;;;0.40;0.38;;;10.90;81.00;;;;;;5096808;28;20485;-70
2023/01/08 06:17:10;;;;;;;1.85;0.63;;;10.90;81.00;;;;;;5076296;28;20468;-69
2023/01/08 06:19:38;;;;;;;0.63;0.63;;;10.90;81.00;;;;;;5092602;28;20124;-71
2023/01/08 06:22:04;;;;;;;0.75;0.50;;;10.90;81.10;;;;;;5093522;28;20047;-59
2023/01/08 06:24:30;;;;;;;1.15;0.40;;;10.90;81.00;;;;;;5074049;28;20028;-60
2023/01/08 06:26:56;;;;;;;0.60;0.52;;;10.90;80.90;;;;;;5088572;28;20327;-59
2023/01/08 06:29:21;;;;;;;0.50;0.40;;;10.90;80.90;;;;;;5088803;28;20128;-60
2023/01/08 06:31:47;;;;;;;0.55;0.40;;;10.90;80.70;;;;;;5069622;28;20035;-63
2023/01/08 06:34:13;;;;;;;1.65;0.60;;;10.90;80.70;;;;;;5072189;28;20032;-70
2023/01/08 06:36:38;;;;;;;1.17;0.60;;;10.90;80.70;;;;;;5089922;28;20040;-70
2023/01/08 06:39:05;;;;;;;0.38;0.30;;;10.80;80.60;;;;;;5072844;28;20059;-70
2023/01/08 06:41:31;;;;;;;0.50;0.50;;;10.80;80.60;;;;;;5057450;28;20070;-70
2023/01/08 06:43:57;;;;;;;1.08;0.43;;;10.80;80.60;;;;;;5090359;28;20067;-60
2023/01/08 06:46:22;;;;;;;0.43;0.40;;;10.70;80.30;;;;;;5087380;28;20017;-60
2023/01/08 06:48:48;;;;;;;1.20;0.47;;;10.60;81.00;;;;;;5090270;28;20028;-60
2023/01/08 06:51:14;;;;;;;0.80;0.57;;;10.60;80.50;;;;;;5095369;28;20677;-59
2023/01/08 06:53:39;;;;;;;1.58;0.50;;;10.60;80.60;;;;;;5072165;28;20379;-59
2023/01/08 06:56:08;;;;;;;0.35;0.30;;;10.50;80.60;;;;;;5092913;28;20027;-60
2023/01/08 06:58:33;;;;;;;2.75;0.40;;;10.50;80.50;;;;;;5089445;28;20483;-59
2023/01/08 07:00:59;;;;;;;1.60;0.80;;;10.50;80.50;;;;;;5090857;28;20039;-59
2023/01/08 07:03:25;;;;;;;0.40;0.38;;;10.40;80.40;;;;;;5090111;28;20432;-69
2023/01/08 07:05:51;;;;;;;1.30;0.45;;;10.40;80.40;;;;;;5055096;28;20040;-70
2023/01/08 07:08:17;;;;;;;1.10;0.43;;;10.30;80.50;;;;;;5070333;28;20032;-70
2023/01/08 07:10:44;;;;;;;1.25;0.60;;;10.30;80.50;;;;;;5087590;28;20368;-70
2023/01/08 07:13:11;;;;;;;2.25;0.50;;;10.30;80.60;;;;;;5098359;28;20028;-60
2023/01/08 07:15:38;;;;;;;0.45;0.40;;;10.30;80.60;;;;;;5101551;28;20032;-60
2023/01/08 07:18:05;;;;;;;1.85;0.77;;;10.20;80.30;;;;;;5110518;28;20258;-60
2023/01/08 07:20:32;;;;;;;1.23;0.55;;;10.20;80.30;;;;;;5100864;28;20039;-60
2023/01/08 07:23:05;;;;;;;2.13;0.55;;;10.10;80.10;;;;;;5107045;28;20028;-60
2023/01/08 07:25:31;;;;;;;0.52;0.50;;;10.20;80.20;;;;;;5084771;28;20057;-69
2023/01/08 07:27:58;;;;;;;1.08;0.73;;;10.10;80.00;;;;;;5109097;28;20102;-69
2023/01/08 07:30:24;;;;;;;0.65;0.63;;;10.10;79.80;;;;;;5103332;28;20474;-69
2023/01/08 07:32:50;;;;;;;0.88;0.68;;;10.10;79.60;;;;;;5108379;28;20026;-60
2023/01/08 07:35:15;;;;;;;1.27;0.38;;;10.10;79.60;;;;;;5087399;28;20028;-60
2023/01/08 07:37:42;;;;;;;2.85;0.90;;;10.10;79.50;;;;;;5073055;28;20047;-70
2023/01/08 07:40:09;;;;;;;3.80;0.63;;;10.10;79.10;;;;;;5100782;28;20029;-70
2023/01/08 07:42:35;;;;;;;3.38;0.80;;;10.10;79.00;;;;;;5087192;28;20020;-69
2023/01/08 07:45:01;;;;;;;2.70;0.80;;;10.10;78.80;;;;;;5077325;28;20115;-70
2023/01/08 07:47:27;;;;;;;1.10;0.55;;;10.10;78.90;;;;;;5073860;28;20202;-68
2023/01/08 07:49:52;;;;;;;1.77;0.73;;;10.10;79.00;;;;;;5084224;28;20433;-69
2023/01/08 07:52:18;;;;;;;0.95;0.43;;;10.00;78.80;;;;;;5096410;28;20652;-60
2023/01/08 07:54:44;;;;;;;0.60;0.32;;;10.00;78.80;;;;;;5096134;28;20061;-60
2023/01/08 07:57:09;;;;;;;1.27;0.63;;;10.00;79.00;;;;;;5098407;28;20028;-60
2023/01/08 07:59:35;;;;;;;1.83;0.80;;;10.10;78.70;;;;;;5109359;28;20032;-59
2023/01/08 08:02:01;;;;;;;2.78;0.80;;;10.00;78.70;;;;;;5109290;28;20115;-59
2023/01/08 08:04:27;;;;;;;1.05;0.65;;;10.10;78.60;;;;;;5079548;28;20029;-59
2023/01/08 08:06:53;;;;;;;2.45;0.70;;;10.10;78.60;;;;;;5080197;28;20505;-69
2023/01/08 08:09:19;;;;;;;2.88;0.35;;;10.10;78.50;;;;;;5102563;28;20067;-69
2023/01/08 08:11:45;;;;;;;1.55;0.57;;;10.10;78.40;;;;;;5100599;28;20481;-70
2023/01/08 08:14:11;;;;;;;1.05;0.65;;;10.10;78.30;;;;;;5080071;28;20228;-70
2023/01/08 08:16:36;;;;;;;1.98;0.60;;;10.10;78.30;;;;;;5075349;28;20139;-60
2023/01/08 08:19:02;;;;;;;1.05;0.68;;;10.00;78.30;;;;;;5092075;28;20043;-60
2023/01/08 08:21:28;;;;;;;1.33;0.70;;;10.00;78.10;;;;;;5055204;28;20402;-60
2023/01/08 08:23:54;;;;;;;2.25;0.95;;;10.00;78.10;;;;;;5091162;28;20023;-65
2023/01/08 08:26:20;;;;;;;1.08;0.73;;;10.00;77.80;;;;;;5102672;28;20052;-59
2023/01/08 08:28:46;;;;;;;1.17;0.95;;;9.90;77.70;;;;;;5085555;28;20395;-69
2023/01/08 08:31:12;;;;;;;2.65;1.25;;;9.90;77.50;;;;;;5094672;28;20024;-67
2023/01/08 08:33:38;;;;;;;0.63;0.60;;;9.90;77.50;;;;;;5095276;28;20028;-67
2023/01/08 08:36:04;;;;;;;2.25;0.75;;;9.90;77.40;;;;;;5104214;28;20051;-68
2023/01/08 08:38:29;;;;;;;1.27;0.77;;;9.90;77.40;;;;;;5092276;28;20069;-69
2023/01/08 08:40:55;;;;;;;2.95;0.85;;;10.00;78.00;;;;;;5074906;28;20101;-68
2023/01/08 08:43:21;;;;;;;0.88;0.82;;;9.90;77.30;;;;;;5093334;28;20032;-59
2023/01/08 08:45:46;;;;;;;1.42;0.73;;;9.90;77.20;;;;;;5069537;28;20052;-59
2023/01/08 08:48:12;;;;;;;3.13;1.25;;;9.90;77.20;;;;;;5071863;28;20035;-68
2023/01/08 08:50:38;;;;;;;2.08;1.17;;;9.90;77.00;;;;;;5074861;28;20395;-69
2023/01/08 08:53:05;;;;;;;1.20;0.70;;;9.90;76.90;;;;;;5068775;28;20032;-59
2023/01/08 08:55:31;;;;;;;2.97;0.60;;;10.00;77.00;;;;;;5080794;28;20046;-59
2023/01/08 08:58:11;;;;;;;2.33;0.80;;;10.00;76.70;;;;;;5055778;28;20438;-59
2023/01/08 09:00:42;;;;;;;2.65;0.30;;;10.00;76.60;;;;;;5075107;28;20115;-69
2023/01/08 09:03:14;;;;;;;4.18;0.75;;;10.00;76.70;;;;;;5067529;28;20028;-69
2023/01/08 09:05:41;;;;;;;2.35;1.17;;;10.10;76.50;;;;;;5075908;28;20060;-69
2023/01/08 09:08:07;;;;;;;1.42;0.60;;;10.10;76.40;;;;;;5080031;28;20032;-58
2023/01/08 09:10:35;;;;;;;2.47;1.00;;;10.10;76.50;;;;;;5079313;28;20028;-59
2023/01/08 09:13:01;;;;;;;2.95;0.65;;;10.10;76.20;;;;;;5075017;28;20027;-58
2023/01/08 09:15:27;;;;;;;3.45;1.38;;;10.20;76.40;;;;;;5096587;27;20499;-59
2023/01/08 09:17:54;;;;;;;4.80;0.95;;;10.20;76.40;;;;;;5080360;28;20060;-59
2023/01/08 09:20:20;;;;;;;4.60;0.73;;;10.20;76.20;;;;;;5084145;28;20043;-58
2023/01/08 09:22:45;;;;;;;1.63;0.73;;;10.30;76.20;;;;;;5093313;28;20028;-59
2023/01/08 09:25:12;;;;;;;1.88;0.82;;;10.20;76.20;;;;;;5101821;28;20100;-58
2023/01/08 09:27:38;;;;;;;1.95;0.80;;;10.20;76.20;;;;;;5078971;28;20436;-59
2023/01/08 09:30:04;;;;;;;1.30;0.63;;;10.30;76.30;;;;;;5098241;28;21003;-68
2023/01/08 09:32:29;;;;;;;3.92;0.85;;;10.30;76.30;;;;;;5074433;28;20043;-58
2023/01/08 09:34:55;;;;;;;1.67;0.52;;;10.30;76.30;;;;;;5086244;28;20032;-67
2023/01/08 09:37:22;;;;;;;1.13;0.93;;;10.30;76.40;;;;;;5097262;28;20036;-68
2023/01/08 09:39:49;;;;;;;1.73;0.52;;;10.40;76.40;;;;;;5096418;28;20032;-59
2023/01/08 09:42:17;;;;;;;2.00;1.10;;;10.40;76.40;;;;;;5100096;28;20069;-60
2023/01/08 09:44:44;;;;;;;14.00;1.40;;;10.40;76.30;;;;;;5093146;28;20359;-60
2023/01/08 09:47:25;;;;;;;1.45;0.90;;;10.50;76.20;;;;;;5101461;28;20019;-59
2023/01/08 09:49:53;;;;;;;2.83;0.82;;;10.50;76.30;;;;;;5092124;28;20039;-68
2023/01/08 09:52:19;;;;;;;1.00;0.80;;;10.50;76.30;;;;;;5074820;28;20029;-68
2023/01/08 09:54:44;;;;;;;2.15;1.02;;;10.50;76.40;;;;;;5088457;28;20043;-68
2023/01/08 09:57:14;;;;;;;3.25;1.17;;;10.40;76.50;;;;;;5090723;28;20031;-58
2023/01/08 09:59:41;;;;;;;1.95;1.13;;;10.30;76.80;;;;;;5082944;28;20438;-65
2023/01/08 10:02:22;;;;;;;5.00;0.82;;;10.30;77.00;;;;;;5088312;28;20099;-66
2023/01/08 10:04:59;;;;;;;9.02;1.88;;;10.30;77.00;;;;;;5075487;28;20051;-59
2023/01/08 10:07:27;;;;;;;3.60;1.30;;;10.30;77.10;;;;;;5095540;28;20587;-59
2023/01/08 10:09:54;;;;;;;5.45;1.45;;;10.20;77.30;;;;;;5087110;28;20101;-66
2023/01/08 10:12:28;;;;;;;4.20;0.98;;;10.30;77.50;;;;;;5110812;28;20540;-66
2023/01/08 10:14:59;;;;;;;1.63;0.60;;;10.30;77.50;;;;;;5092072;28;20359;-58
2023/01/08 10:17:38;;;;;;;2.08;0.73;;;10.20;77.60;;;;;;5090503;28;20035;-59
2023/01/08 10:20:15;;;;;;;1.40;0.40;;;10.40;77.70;;;;;;5091088;28;20027;-60
2023/01/08 10:22:41;;;;;;;3.00;1.33;;;10.40;77.50;;;;;;5097588;28;20585;-60
2023/01/08 10:25:13;;;;;;;7.10;0.95;;;10.50;77.40;;;;;;5083156;28;20041;-60
2023/01/08 10:27:45;;;;;;;;;;;10.60;77.40;;;;;;5084078;28;20034;-59
2023/01/08 10:30:16;;;;;;;0.73;0.73;;;10.60;77.80;;;;;;5105300;28;20426;-60
2023/01/08 10:32:47;;;;;;;1.92;1.10;;;10.60;77.20;;;;;;5094927;28;20024;-59
2023/01/08 10:35:17;;;;;;;2.80;1.15;;;10.80;76.80;;;;;;5096050;28;20165;-66
2023/01/08 10:37:46;;;;;;;4.78;1.50;;;11.00;76.80;;;;;;5085460;28;20065;-60
2023/01/08 10:40:32;;;;;;;3.40;1.20;;;12.10;75.00;;;;;;5082528;28;20581;-59
2023/01/08 10:43:12;;;;;;;9.00;1.58;;;13.60;70.60;;;;;;5089779;28;20706;-66
2023/01/08 10:45:37;;;;;;;1.63;0.95;;;14.60;68.10;;;;;;5086124;28;20455;-66
2023/01/08 10:48:06;;;;;;;2.78;0.88;;;15.00;65.70;;;;;;5086624;28;20024;-66
2023/01/08 10:50:33;;;;;;;2.33;1.45;;;14.90;65.60;;;;;;5090037;28;20406;-60
2023/01/08 10:53:01;;;;;;;3.22;1.13;;;14.70;65.80;;;;;;5102212;28;20026;-59
2023/01/08 10:55:31;;;;;;;3.13;1.55;;;14.70;65.90;;;;;;5100164;28;20027;-59
2023/01/08 10:58:02;;;;;;;3.92;1.52;;;14.40;66.10;;;;;;5075560;28;20514;-59
2023/01/08 11:00:31;;;;;;;2.22;1.02;;;14.30;67.10;;;;;;5096854;28;20111;-59
2023/01/08 11:03:02;;;;;;;2.75;0.82;;;14.90;66.80;;;;;;5096414;28;20385;-59
2023/01/08 11:05:38;;;;;;;3.03;1.55;;;15.60;64.10;;;;;;5075977;28;20127;-58
2023/01/08 11:08:15;;;;;;;2.85;1.30;;;15.80;63.10;;;;;;5092023;28;20475;-64
2023/01/08 11:10:41;;;;;;;2.50;1.10;;;16.10;62.20;;;;;;5084639;28;20413;-59
2023/01/08 11:13:07;;;;;;;7.15;1.42;;;16.70;60.90;;;;;;5095896;28;20428;-59
2023/01/08 11:15:39;;;;;;;1.92;0.90;;;17.10;60.00;;;;;;5070533;28;20178;-58
2023/01/08 11:18:26;;;;;;;2.03;1.10;;;16.70;59.00;;;;;;5100125;28;20016;-58
2023/01/08 11:21:05;;;;;;;3.17;1.05;;;15.50;60.90;;;;;;5085796;28;20487;-59
2023/01/08 11:23:30;;;;;;;1.55;0.80;;;14.50;63.60;;;;;;5098590;28;20051;-59
2023/01/08 11:26:09;;;;;;;1.13;0.90;;;13.90;65.40;;;;;;5088012;28;20502;-59
2023/01/08 11:28:59;;;;;;;8.48;1.10;;;13.50;66.60;;;;;;5070504;28;20115;-60
2023/01/08 11:31:38;;;;;;;6.07;0.70;;;13.10;67.90;;;;;;5090818;28;20028;-59
2023/01/08 11:34:18;;;;;;;2.25;0.73;;;12.90;68.70;;;;;;5097702;28;20028;-59
2023/01/08 11:36:58;;;;;;;1.38;0.80;;;12.90;69.20;;;;;;5074659;28;20048;-59
2023/01/08 11:39:24;;;;;;;2.05;0.77;;;14.60;68.00;;;;;;5094755;28;20474;-59
2023/01/08 11:42:02;;;;;;;10.00;1.52;;;17.00;62.40;;;;;;5080271;28;20445;-59
2023/01/08 11:44:49;;;;;;;2.10;0.90;;;19.60;57.20;;;;;;5097437;28;20038;-64
2023/01/08 11:47:26;;;;;;;4.70;1.17;;;21.40;51.60;;;;;;5094755;28;20039;-64
2023/01/08 11:49:58;;;;;;;2.88;1.67;;;21.10;50.60;;;;;;5099322;28;20024;-64
2023/01/08 11:53:01;;;;;;;0.77;0.60;;;20.10;51.70;;;;;;5089937;28;20020;-59
2023/01/08 11:55:31;;;;;;;2.00;0.90;;;18.80;53.70;;;;;;5097079;28;20122;-59
2023/01/08 11:58:15;;;;;;;1.42;0.70;;;17.30;56.10;;;;;;5091284;28;20059;-60
2023/01/08 12:01:14;;;;;;;1.48;0.45;;;16.00;59.00;;;;;;5086947;28;20640;-64
2023/01/08 12:04:08;;;;;;;2.22;0.85;;;15.20;61.30;;;;;;5092023;28;20365;-64
2023/01/08 12:07:11;;;;;;;1.40;0.55;;;15.30;62.70;;;;;;5100442;28;20080;-59
2023/01/08 12:09:41;;;;;;;0.95;0.70;;;17.50;59.70;;;;;;5070368;28;20109;-64
2023/01/08 12:12:13;;;;;;;0.80;0.63;;;20.20;54.00;;;;;;5105800;28;20494;-59
2023/01/08 12:15:05;;;;;;;2.07;0.93;;;22.40;49.00;;;;;;5108677;28;20334;-64
2023/01/08 12:17:34;;;;;;;;;;;23.70;46.50;;;;;;5098269;28;20278;-59
2023/01/08 12:20:19;;;;;;;0.93;0.57;;;24.70;42.60;;;;;;5091554;28;19915;-71
2023/01/08 12:23:06;;;;;;;0.35;0.35;;;25.10;42.90;;;;;;5094805;28;20032;-60
2023/01/08 12:26:03;;;;;;;0.40;0.40;;;25.30;41.70;;;;;;5091804;28;20106;-61
2023/01/08 12:28:37;;;;;;;1.88;0.80;;;25.90;41.30;;;;;;5078338;28;20479;-60
2023/01/08 12:31:26;;;;;;;0.50;0.50;;;26.30;40.90;;;;;;5089828;28;20450;-60
2023/01/08 12:34:04;;;;;;;0.98;0.50;;;26.30;38.90;;;;;;5093260;28;20073;-61
2023/01/08 12:37:01;;;;;;;1.55;0.50;;;26.40;39.20;;;;;;5094730;28;20104;-67
2023/01/08 12:39:32;;;;;;;0.50;0.50;;;25.20;40.10;;;;;;5080483;28;20038;-66
2023/01/08 12:42:09;;;;;;;0.40;0.40;;;23.90;42.50;;;;;;5059723;28;20052;-66
2023/01/08 12:44:36;;;;;;;0.73;0.55;;;23.40;43.40;;;;;;5072714;28;20020;-67
2023/01/08 12:47:05;;;;;;;0.57;0.30;;;23.70;42.60;;;;;;5090627;28;20028;-67
2023/01/08 12:49:51;;;;;;;1.08;0.50;;;23.80;41.50;;;;;;5089836;28;20325;-66
2023/01/08 12:52:35;;;;;;;2.65;0.40;;;23.00;42.50;;;;;;5090019;28;20096;-67
2023/01/08 12:55:31;;;;;;;0.40;0.40;;;22.80;43.20;;;;;;5082970;28;20421;-61
2023/01/08 12:58:13;;;;;;;0.55;0.40;;;21.70;43.60;;;;;;5097199;28;20031;-61
2023/01/08 13:00:45;;;;;;;0.85;0.80;;;20.60;46.50;;;;;;5079523;28;20467;-61
2023/01/08 13:03:20;;;;;;;0.65;0.40;;;19.70;47.60;;;;;;5071223;28;20557;-60